Angelica, Pennsylvania
Current Conditions -  °F | °C
As of 5:13 PM on Thursday 23 Oct 2014 (Local Time) from KRDG Reporting Station
Overcast Overcast  
Wind Chill: 13°   Ceiling: 3000
Heat Index: 13°   Visibility: 10mi
Dew Point:   Wind: 17mph
Humidity: 64%   Direction: 360°N
Pressure: 29.82"   Gusts: NA
Location:  40.2411°N, 75.9752°W
Report Text: KRDG 232113Z AUTO 36015KT 10SM OVC030 13/06 A2982 RMK AO2 T01280061
Loading
Personal Weather Stations






























Interactive Weather Map
Tropical Storm Tracking
New forecast layout! Learn more

10-Day Weather Forecast

Advertisements
Track Severe Weather on mobile